createdAt,value
2023-05-10T00:00:49.333Z,101.1801
2023-05-10T00:01:57.432Z,100.4932
2023-05-10T00:03:05.643Z,100.4360
2023-05-10T00:04:13.621Z,100.4746
2023-05-10T00:05:21.501Z,100.4475
2023-05-10T00:06:29.470Z,100.6691
2023-05-10T00:07:37.523Z,100.6064
2023-05-10T00:08:45.712Z,100.6949
2023-05-10T00:09:53.856Z,100.4571
2023-05-10T00:11:01.860Z,100.9538
2023-05-10T00:12:09.922Z,100.5795
2023-05-10T00:13:18.048Z,100.4583
2023-05-10T00:14:26.085Z,100.4396
2023-05-10T00:15:34.048Z,100.4089
2023-05-10T00:16:42.149Z,100.1309
2023-05-10T00:17:50.178Z,100.0103
2023-05-10T00:18:58.237Z,99.9177
2023-05-10T00:20:06.198Z,99.5775
2023-05-10T00:21:14.196Z,99.9409
2023-05-10T00:22:22.253Z,99.8436
2023-05-10T00:23:30.468Z,99.6123
2023-05-10T00:24:38.474Z,99.8680
2023-05-10T00:25:46.794Z,99.6186
2023-05-10T00:26:54.944Z,99.7184
2023-05-10T00:28:02.663Z,99.2546
2023-05-10T00:29:10.702Z,99.0800
2023-05-10T00:30:19.041Z,99.0469
2023-05-10T00:31:26.863Z,99.2963
2023-05-10T00:32:34.918Z,99.4385
2023-05-10T00:33:42.922Z,99.6804
2023-05-10T00:34:50.875Z,99.4900
2023-05-10T00:35:58.896Z,98.6771
2023-05-10T00:37:06.996Z,97.6868
2023-05-10T00:38:15.227Z,97.7857
2023-05-10T00:39:23.292Z,98.4529
2023-05-10T00:40:31.341Z,98.3424
2023-05-10T00:41:39.436Z,97.8560
2023-05-10T00:42:47.589Z,97.6577
2023-05-10T00:43:55.486Z,97.8036
2023-05-10T00:45:03.529Z,98.2131
2023-05-10T00:46:11.751Z,98.0419
2023-05-10T00:47:19.644Z,97.9901
2023-05-10T00:48:27.783Z,97.5532
2023-05-10T00:49:35.620Z,98.0143
2023-05-10T00:50:43.690Z,98.2975
2023-05-10T00:51:51.721Z,99.2406
2023-05-10T00:52:59.976Z,99.7792
2023-05-10T00:54:08.023Z,99.8940
2023-05-10T00:55:16.035Z,99.9954
2023-05-10T00:56:24.086Z,100.4868
2023-05-10T00:57:32.166Z,99.9841
2023-05-10T00:58:40.319Z,100.5857
2023-05-10T00:59:48.299Z,100.8908
2023-05-10T01:00:56.426Z,100.3335
2023-05-10T01:02:04.479Z,100.0960
2023-05-10T01:03:12.582Z,99.9357
2023-05-10T01:04:20.396Z,99.9042
2023-05-10T01:05:28.478Z,100.2393
2023-05-10T01:06:36.476Z,99.5401
2023-05-10T01:07:44.708Z,99.4238
2023-05-10T01:08:52.724Z,99.4608
2023-05-10T01:10:00.800Z,100.0318
2023-05-10T01:11:08.861Z,100.2275
2023-05-10T01:12:16.979Z,99.9761
2023-05-10T01:13:25.008Z,99.3534
2023-05-10T01:14:33.144Z,99.5543
2023-05-10T01:15:41.147Z,99.6470
2023-05-10T01:16:49.106Z,100.0216
2023-05-10T01:17:57.209Z,99.7246
2023-05-10T01:19:05.089Z,98.9396
2023-05-10T01:20:13.190Z,99.3227
2023-05-10T01:21:21.259Z,99.7883
2023-05-10T01:22:29.407Z,99.6025
2023-05-10T01:23:37.456Z,99.4958
2023-05-10T01:24:45.502Z,100.4105
2023-05-10T01:25:53.573Z,100.3174
2023-05-10T01:27:01.654Z,100.4996
2023-05-10T01:28:09.672Z,100.3463
2023-05-10T01:29:17.758Z,101.0139
2023-05-10T01:30:25.909Z,100.5018
2023-05-10T01:31:33.959Z,100.1945
2023-05-10T01:32:42.136Z,100.2058
2023-05-10T01:33:49.834Z,100.7676
2023-05-10T01:34:57.887Z,100.5596
2023-05-10T01:36:05.940Z,100.4336
2023-05-10T01:37:14.134Z,100.4764
2023-05-10T01:38:22.207Z,100.2829
2023-05-10T01:39:30.236Z,100.9543
2023-05-10T01:40:38.289Z,100.8249
2023-05-10T01:41:46.384Z,101.4677
2023-05-10T01:42:54.402Z,101.3628
2023-05-10T01:44:02.435Z,101.1899
2023-05-10T01:45:10.496Z,100.7142
2023-05-10T01:46:18.673Z,100.9599
2023-05-10T01:47:26.707Z,100.9629
2023-05-10T01:48:34.540Z,100.7124
2023-05-10T01:49:42.574Z,100.4630
2023-05-10T01:50:50.665Z,100.2607
2023-05-10T01:51:58.901Z,99.6254
2023-05-10T01:53:06.942Z,99.6678
2023-05-10T01:54:14.983Z,99.7059
2023-05-10T01:55:23.039Z,99.5382
2023-05-10T01:56:31.193Z,100.5042
2023-05-10T01:57:39.176Z,100.3426
2023-05-10T01:58:47.292Z,100.2509
2023-05-10T01:59:55.258Z,99.8338
2023-05-10T02:01:03.398Z,99.6166
2023-05-10T02:02:11.379Z,100.0915
2023-05-10T02:03:19.303Z,99.8578
2023-05-10T02:04:27.317Z,100.9033
2023-05-10T02:05:35.390Z,101.5187
2023-05-10T02:06:43.658Z,101.7242
2023-05-10T02:07:51.601Z,102.3347
2023-05-10T02:08:59.727Z,102.7060
2023-05-10T02:10:07.731Z,102.4819
2023-05-10T02:11:15.802Z,102.2752
2023-05-10T02:12:23.992Z,102.2207
2023-05-10T02:13:31.983Z,102.8911
2023-05-10T02:14:39.934Z,103.1773
2023-05-10T02:15:48.000Z,103.2158
2023-05-10T02:16:56.186Z,102.4849
2023-05-10T02:18:04.256Z,101.2912
2023-05-10T02:19:12.043Z,101.8049
2023-05-10T02:20:20.327Z,102.4934
2023-05-10T02:21:28.160Z,101.7427
2023-05-10T02:22:36.364Z,101.5364
2023-05-10T02:23:44.475Z,100.5940
2023-05-10T02:24:52.464Z,100.4011
2023-05-10T02:26:00.737Z,100.6332
2023-05-10T02:27:08.559Z,100.9423
2023-05-10T02:28:16.715Z,101.4111
2023-05-10T02:29:24.724Z,100.8176
2023-05-10T02:30:32.873Z,100.1856
2023-05-10T02:31:41.331Z,99.7713
2023-05-10T02:32:48.795Z,99.6308
2023-05-10T02:33:56.795Z,99.5728
2023-05-10T02:35:04.880Z,99.9176
2023-05-10T02:36:13.052Z,99.2322
2023-05-10T02:37:21.211Z,99.0825
2023-05-10T02:38:29.258Z,100.1238
2023-05-10T02:39:37.261Z,101.1589
2023-05-10T02:40:45.269Z,101.2331
2023-05-10T02:41:53.398Z,102.4709
2023-05-10T02:43:01.416Z,101.8937
2023-05-10T02:44:09.692Z,101.3519
2023-05-10T02:45:17.609Z,100.7042
2023-05-10T02:46:25.790Z,99.8455
2023-05-10T02:47:33.624Z,99.1630
2023-05-10T02:48:41.535Z,99.3002
2023-05-10T02:49:49.583Z,99.9287
2023-05-10T02:50:57.886Z,99.8342
2023-05-10T02:52:10.735Z,99.3626
2023-05-10T02:53:19.019Z,99.6347
2023-05-10T02:54:26.833Z,99.7383
2023-05-10T02:55:34.921Z,99.8547
2023-05-10T02:56:42.984Z,99.7454
2023-05-10T02:57:50.981Z,99.4571
2023-05-10T02:58:59.102Z,99.2616
2023-05-10T03:00:07.109Z,100.0097
2023-05-10T03:01:15.053Z,101.1998
2023-05-10T03:02:23.146Z,100.4754
2023-05-10T03:03:31.120Z,100.5897
2023-05-10T03:04:39.433Z,101.1890
2023-05-10T03:05:47.353Z,101.3084
2023-05-10T03:06:55.441Z,101.9424
2023-05-10T03:08:03.599Z,101.6695
2023-05-10T03:09:11.679Z,100.9393
2023-05-10T03:10:19.726Z,101.2317
2023-05-10T03:11:27.673Z,101.5199
2023-05-10T03:12:35.695Z,100.9458
2023-05-10T03:13:43.825Z,100.4926
2023-05-10T03:14:51.990Z,100.3712
2023-05-10T03:15:59.782Z,99.9667
2023-05-10T03:17:07.803Z,99.9210
2023-05-10T03:18:15.925Z,99.4980
2023-05-10T03:19:24.185Z,100.0049
2023-05-10T03:20:32.182Z,99.9632
2023-05-10T03:21:40.262Z,99.8537
2023-05-10T03:22:48.109Z,99.3633
2023-05-10T03:23:56.345Z,99.2643
2023-05-10T03:25:04.524Z,99.4711
2023-05-10T03:26:12.393Z,99.9112
2023-05-10T03:27:20.472Z,99.5974
2023-05-10T03:28:28.654Z,99.8453
2023-05-10T03:29:36.620Z,100.9792
2023-05-10T03:30:44.506Z,101.5713
2023-05-10T03:31:52.684Z,101.3565
2023-05-10T03:33:00.785Z,101.8280
2023-05-10T03:34:08.861Z,101.4972
2023-05-10T03:35:16.987Z,101.2335
2023-05-10T03:36:24.945Z,101.0896
2023-05-10T03:37:32.971Z,100.5223
2023-05-10T03:38:41.078Z,100.3796
2023-05-10T03:39:49.210Z,101.8078
2023-05-10T03:40:57.468Z,102.1498
2023-05-10T03:42:05.290Z,101.4183
2023-05-10T03:43:13.323Z,101.2034
2023-05-10T03:44:21.412Z,100.8156
2023-05-10T03:45:29.254Z,99.9989
2023-05-10T03:46:37.388Z,99.8617
2023-05-10T03:47:45.505Z,100.2865
2023-05-10T03:48:53.578Z,100.4055
2023-05-10T03:50:01.678Z,99.8572
2023-05-10T03:51:09.835Z,99.6789
2023-05-10T03:52:17.921Z,99.5606
2023-05-10T03:53:26.161Z,99.1846
2023-05-10T03:54:34.000Z,98.6070
2023-05-10T03:55:41.978Z,98.1829
2023-05-10T03:56:50.033Z,98.7846
2023-05-10T03:57:58.128Z,99.7167
2023-05-10T03:59:06.041Z,100.3779
2023-05-10T04:00:14.046Z,100.4134
2023-05-10T04:01:22.021Z,99.6778
2023-05-10T04:02:30.213Z,98.9906
2023-05-10T04:03:38.383Z,98.5222
2023-05-10T04:04:46.383Z,98.1169
2023-05-10T04:05:54.367Z,98.3076
2023-05-10T04:07:02.436Z,98.6185
2023-05-10T04:08:10.449Z,99.0575
2023-05-10T04:09:18.567Z,98.9843
2023-05-10T04:10:26.672Z,99.3665
2023-05-10T04:11:34.799Z,99.4884
2023-05-10T04:12:42.836Z,99.2545
2023-05-10T04:13:50.766Z,99.8300
2023-05-10T04:14:58.703Z,99.1493
2023-05-10T04:16:06.843Z,98.5017
2023-05-10T04:17:14.905Z,98.1971
2023-05-10T04:18:23.025Z,98.5303
2023-05-10T04:19:31.105Z,99.3191
2023-05-10T04:20:39.140Z,99.3917
2023-05-10T04:21:47.181Z,99.5588
2023-05-10T04:22:55.237Z,98.9530
2023-05-10T04:24:03.155Z,99.4116
2023-05-10T04:25:11.521Z,99.4755
2023-05-10T04:26:19.411Z,99.3606
2023-05-10T04:27:27.517Z,99.5313
2023-05-10T04:28:35.532Z,98.7254
2023-05-10T04:29:43.511Z,98.7361
2023-05-10T04:30:51.545Z,98.6620
2023-05-10T04:31:59.567Z,99.2139
2023-05-10T04:33:07.889Z,98.4010
2023-05-10T04:34:15.806Z,98.7393
2023-05-10T04:35:23.873Z,98.7575
2023-05-10T04:36:31.933Z,98.4335
2023-05-10T04:37:39.949Z,99.3477
2023-05-10T04:38:48.077Z,99.5678
2023-05-10T04:39:56.114Z,98.7023
2023-05-10T04:41:04.164Z,98.9751
2023-05-10T04:42:12.454Z,99.5284
2023-05-10T04:43:20.247Z,100.0376
2023-05-10T04:44:28.181Z,99.5265
2023-05-10T04:45:36.225Z,99.5686
2023-05-10T04:46:44.361Z,99.3594
2023-05-10T04:47:52.713Z,99.2488
2023-05-10T04:49:00.562Z,99.6340
2023-05-10T04:50:08.697Z,99.3209
2023-05-10T04:51:16.765Z,98.8133
2023-05-10T04:52:24.763Z,98.7004
2023-05-10T04:53:32.886Z,98.6203
2023-05-10T04:54:41.051Z,98.4743
2023-05-10T04:55:49.090Z,97.7158
2023-05-10T04:56:57.058Z,97.6528
2023-05-10T04:58:05.051Z,97.4315
2023-05-10T04:59:13.019Z,97.1780
2023-05-10T05:00:21.046Z,96.9491
2023-05-10T05:01:29.263Z,96.8337
2023-05-10T05:02:37.397Z,97.3064
2023-05-10T05:03:45.679Z,97.3015
2023-05-10T05:04:53.406Z,96.4607
2023-05-10T05:06:01.578Z,96.1374
2023-05-10T05:07:09.536Z,95.1566
2023-05-10T05:08:17.672Z,94.5257
2023-05-10T05:09:25.650Z,94.6885
2023-05-10T05:10:33.825Z,94.7270
2023-05-10T05:11:41.815Z,93.2828
2023-05-10T05:12:49.841Z,93.9690
2023-05-10T05:13:57.755Z,94.0773
2023-05-10T05:15:07.849Z,93.9876
2023-05-10T05:16:18.852Z,92.9026
2023-05-10T05:17:26.988Z,94.2332
2023-05-10T05:18:34.971Z,93.9878
2023-05-10T05:19:42.983Z,93.8088
2023-05-10T05:20:51.061Z,93.4147
2023-05-10T05:21:59.105Z,93.6663
2023-05-10T05:23:07.239Z,94.2996
2023-05-10T05:24:15.238Z,94.6873
2023-05-10T05:25:23.169Z,95.5623
2023-05-10T05:26:31.469Z,96.2875
2023-05-10T05:27:39.339Z,96.4664
2023-05-10T05:28:47.362Z,96.6085
2023-05-10T05:29:55.380Z,96.7051
2023-05-10T05:31:03.540Z,97.1383
2023-05-10T05:32:11.610Z,96.9255
2023-05-10T05:33:19.768Z,97.2942
2023-05-10T05:34:27.747Z,98.3066
2023-05-10T05:35:35.814Z,98.3175
2023-05-10T05:36:43.831Z,98.6545
2023-05-10T05:37:52.088Z,97.9325
2023-05-10T05:39:00.041Z,97.7120
2023-05-10T05:40:07.998Z,97.7235
2023-05-10T05:41:16.100Z,97.8783
2023-05-10T05:42:24.014Z,98.1546
2023-05-10T05:43:32.016Z,98.3068
2023-05-10T05:44:40.127Z,98.4761
2023-05-10T05:45:48.309Z,97.8977
2023-05-10T05:46:56.631Z,97.4968
2023-05-10T05:48:04.499Z,97.4307
2023-05-10T05:49:12.449Z,97.3536
2023-05-10T05:50:20.556Z,98.3766
2023-05-10T05:51:28.595Z,97.8435
2023-05-10T05:52:36.643Z,99.1382
2023-05-10T05:53:44.740Z,99.2454
2023-05-10T05:54:52.754Z,98.7650
2023-05-10T05:56:00.854Z,99.0048
2023-05-10T05:57:08.739Z,97.8977
2023-05-10T05:58:16.825Z,98.5926
2023-05-10T05:59:24.904Z,98.5195
2023-05-10T06:00:33.149Z,98.5728
2023-05-10T06:01:41.168Z,98.7936
2023-05-10T06:02:49.326Z,98.1851
2023-05-10T06:03:57.323Z,98.9325
2023-05-10T06:05:05.339Z,99.4105
2023-05-10T06:06:13.385Z,98.1017
2023-05-10T06:07:21.422Z,96.8306
2023-05-10T06:08:29.600Z,96.4801
2023-05-10T06:09:37.524Z,96.7445
2023-05-10T06:10:45.589Z,96.5152
2023-05-10T06:11:53.530Z,96.4065
2023-05-10T06:13:01.594Z,96.4475
2023-05-10T06:14:09.683Z,95.8472
2023-05-10T06:15:18.066Z,95.3025
2023-05-10T06:16:26.050Z,95.5271
2023-05-10T06:17:34.006Z,95.2610
2023-05-10T06:18:42.002Z,95.9318
2023-05-10T06:19:50.128Z,95.0893
2023-05-10T06:20:58.204Z,94.7459
2023-05-10T06:22:06.224Z,94.4408
2023-05-10T06:23:14.459Z,94.5208
2023-05-10T06:24:22.348Z,94.9930
2023-05-10T06:25:30.358Z,93.3913
2023-05-10T06:26:38.297Z,92.8503
2023-05-10T06:27:49.766Z,93.5781
2023-05-10T06:28:59.456Z,92.6345
2023-05-10T06:30:13.071Z,93.4442
2023-05-10T06:31:20.387Z,93.6523
2023-05-10T06:32:28.518Z,92.6896
2023-05-10T06:33:36.532Z,92.0048
2023-05-10T06:34:44.687Z,92.2992
2023-05-10T06:35:52.662Z,92.2192
2023-05-10T06:37:00.852Z,93.3140
2023-05-10T06:38:08.769Z,93.5383
2023-05-10T06:39:16.699Z,94.9326
2023-05-10T06:40:24.933Z,94.3678
2023-05-10T06:41:32.785Z,92.9399
2023-05-10T06:42:41.184Z,94.5030
2023-05-10T06:43:49.084Z,92.6829
2023-05-10T06:44:57.323Z,93.3415
2023-05-10T06:46:05.242Z,92.1500
2023-05-10T06:47:13.218Z,93.1861
2023-05-10T06:48:21.308Z,94.2653
2023-05-10T06:49:29.365Z,96.3085
2023-05-10T06:50:37.407Z,95.2119
2023-05-10T06:51:45.455Z,94.3733
2023-05-10T06:52:53.530Z,94.7866
2023-05-10T06:54:01.460Z,94.9435
2023-05-10T06:55:09.513Z,95.4493
2023-05-10T06:56:17.602Z,94.4438
2023-05-10T06:57:31.794Z,94.5733
2023-05-10T06:58:38.692Z,93.8260
2023-05-10T06:59:46.752Z,92.6152
2023-05-10T07:00:54.831Z,92.9637
2023-05-10T07:02:02.899Z,93.7011
2023-05-10T07:03:11.038Z,93.8385
2023-05-10T07:04:19.223Z,92.8225
2023-05-10T07:05:27.053Z,93.1510
2023-05-10T07:06:35.169Z,93.5143
2023-05-10T07:07:43.072Z,93.1383
2023-05-10T07:08:51.091Z,92.1350
2023-05-10T07:09:59.128Z,91.6557
2023-05-10T07:11:07.327Z,93.6506
2023-05-10T07:12:16.046Z,92.6970
2023-05-10T07:13:23.651Z,92.4162
2023-05-10T07:14:31.511Z,92.5930
2023-05-10T07:15:39.580Z,91.9022
2023-05-10T07:16:47.654Z,92.0643
2023-05-10T07:17:55.711Z,91.9268
2023-05-10T07:19:03.792Z,92.1739
2023-05-10T07:20:11.954Z,92.3078
2023-05-10T07:21:20.009Z,91.8251
2023-05-10T07:22:27.809Z,91.1722
2023-05-10T07:23:35.894Z,90.3673
2023-05-10T07:24:43.901Z,90.9150
2023-05-10T07:25:52.104Z,90.5103
2023-05-10T07:27:00.261Z,92.6395
2023-05-10T07:28:08.197Z,91.2812
2023-05-10T07:29:16.411Z,88.6092
2023-05-10T07:30:24.413Z,90.1110
2023-05-10T07:31:32.429Z,88.2314
2023-05-10T07:32:40.596Z,89.1829
2023-05-10T07:33:48.538Z,89.3579
2023-05-10T07:34:56.628Z,89.4182
2023-05-10T07:36:04.626Z,89.7795
2023-05-10T07:37:12.583Z,89.5651
2023-05-10T07:38:20.633Z,88.9749
2023-05-10T07:39:28.690Z,88.5521
2023-05-10T07:40:36.927Z,90.0698
2023-05-10T07:41:45.199Z,90.9107
2023-05-10T07:42:53.038Z,91.5688
2023-05-10T07:44:01.063Z,91.9119
2023-05-10T07:45:09.247Z,90.6821
2023-05-10T07:46:17.510Z,90.5599
2023-05-10T07:47:25.330Z,90.3284
2023-05-10T07:48:33.368Z,90.5602
2023-05-10T07:49:41.367Z,91.2980
2023-05-10T07:50:49.429Z,89.3843
2023-05-10T07:51:57.342Z,89.6601
2023-05-10T07:53:05.476Z,89.8968
2023-05-10T07:54:13.469Z,88.4020
2023-05-10T07:55:21.664Z,88.9748
2023-05-10T07:56:29.778Z,88.4070
2023-05-10T07:57:37.876Z,88.1435
2023-05-10T07:58:45.891Z,88.4541
2023-05-10T07:59:53.938Z,86.9146
2023-05-10T08:01:02.075Z,87.7389
2023-05-10T08:02:10.035Z,88.4581
2023-05-10T08:03:18.208Z,89.2342
2023-05-10T08:04:26.238Z,88.5386
2023-05-10T08:05:35.807Z,86.6144
2023-05-10T08:06:47.140Z,89.6470
2023-05-10T08:07:55.056Z,88.5747
2023-05-10T08:09:03.153Z,87.9990
2023-05-10T08:10:11.283Z,86.7393
2023-05-10T08:11:19.372Z,86.6214
2023-05-10T08:12:27.406Z,87.5691
2023-05-10T08:13:35.561Z,85.6002
2023-05-10T08:14:43.602Z,86.5274
2023-05-10T08:15:51.823Z,85.7462
2023-05-10T08:16:59.807Z,88.5413
2023-05-10T08:18:07.873Z,89.5905
2023-05-10T08:19:15.813Z,89.4582
2023-05-10T08:20:23.819Z,88.2396
2023-05-10T08:21:31.848Z,86.9733
2023-05-10T08:22:39.792Z,83.7390
2023-05-10T08:23:47.900Z,85.6809
2023-05-10T08:24:56.268Z,87.3596
2023-05-10T08:26:04.131Z,84.7423
2023-05-10T08:27:12.222Z,84.3744
2023-05-10T08:28:20.261Z,81.9190
2023-05-10T08:29:30.440Z,82.5660
2023-05-10T08:30:41.449Z,84.9975
2023-05-10T08:31:49.343Z,84.3107
2023-05-10T08:32:57.352Z,82.6095
2023-05-10T08:34:05.385Z,80.8235
2023-05-10T08:35:13.337Z,81.2064
2023-05-10T08:36:21.359Z,84.5033
2023-05-10T08:37:29.400Z,80.4463
2023-05-10T08:38:37.643Z,80.5257
2023-05-10T08:39:45.736Z,84.0448
2023-05-10T08:40:53.738Z,84.9743
2023-05-10T08:42:01.784Z,84.3376
2023-05-10T08:43:09.849Z,84.8469
2023-05-10T08:44:17.881Z,84.5226
2023-05-10T08:45:26.009Z,81.3536
2023-05-10T08:46:34.033Z,82.0031
2023-05-10T08:47:42.069Z,81.9664
2023-05-10T08:48:50.173Z,82.0487
2023-05-10T08:49:58.078Z,78.3832
2023-05-10T08:51:06.095Z,77.1488
2023-05-10T08:52:14.141Z,79.1298
2023-05-10T08:53:22.378Z,80.2288
2023-05-10T08:54:30.417Z,77.5745
2023-05-10T08:55:38.451Z,79.0698
2023-05-10T08:56:49.199Z,80.7578
2023-05-10T08:57:59.475Z,79.0521
2023-05-10T08:59:07.578Z,78.2266
2023-05-10T09:00:15.703Z,79.0513
2023-05-10T09:01:23.710Z,81.9228
2023-05-10T09:02:31.774Z,83.8002
2023-05-10T09:03:39.828Z,80.3619
2023-05-10T09:04:47.902Z,83.0946
2023-05-10T09:05:55.809Z,81.8229
2023-05-10T09:07:03.829Z,79.9773
2023-05-10T09:08:12.150Z,78.9547
2023-05-10T09:09:20.170Z,81.7668
2023-05-10T09:10:28.224Z,83.7328
2023-05-10T09:11:36.194Z,85.0773
2023-05-10T09:12:44.260Z,83.5097
2023-05-10T09:13:52.301Z,80.7995
2023-05-10T09:15:00.584Z,80.9183
2023-05-10T09:16:20.342Z,84.0144
2023-05-10T09:17:21.299Z,84.4894
2023-05-10T09:18:29.322Z,85.0655
2023-05-10T09:19:37.333Z,83.5747
2023-05-10T09:20:45.623Z,84.6419
2023-05-10T09:21:53.593Z,84.8596
2023-05-10T09:23:01.634Z,84.6419
2023-05-10T09:24:09.722Z,84.9712
2023-05-10T09:25:18.121Z,82.3596
2023-05-10T09:26:25.861Z,83.6514
2023-05-10T09:27:33.887Z,83.2962
2023-05-10T09:28:41.931Z,83.0984
2023-05-10T09:29:50.058Z,86.4782
2023-05-10T09:30:58.124Z,85.5508
2023-05-10T09:32:05.956Z,83.9311
2023-05-10T09:33:14.062Z,83.6663
2023-05-10T09:34:22.130Z,82.8841
2023-05-10T09:35:30.342Z,82.6031
2023-05-10T09:36:38.492Z,82.2313
2023-05-10T09:37:46.402Z,83.1381
2023-05-10T09:38:54.493Z,83.2282
2023-05-10T09:40:02.482Z,81.5553
2023-05-10T09:41:10.694Z,83.0809
2023-05-10T09:42:18.633Z,82.6091
2023-05-10T09:43:26.672Z,84.8499
2023-05-10T09:44:34.748Z,84.4038
2023-05-10T09:45:42.799Z,84.7228
2023-05-10T09:46:50.739Z,83.5643
2023-05-10T09:47:58.790Z,81.1696
2023-05-10T09:49:06.787Z,80.7136
2023-05-10T09:50:14.983Z,82.8055
2023-05-10T09:51:23.130Z,83.0546
2023-05-10T09:52:31.086Z,80.7408
2023-05-10T09:53:39.160Z,83.2219
2023-05-10T09:54:47.212Z,82.1741
2023-05-10T09:55:55.316Z,83.1983
2023-05-10T09:57:03.318Z,81.7118
2023-05-10T09:58:11.659Z,81.6453
2023-05-10T09:59:19.423Z,78.4378
2023-05-10T10:00:27.613Z,75.6088
2023-05-10T10:01:35.500Z,77.1351
2023-05-10T10:02:43.513Z,76.5344
2023-05-10T10:03:51.522Z,76.6801
2023-05-10T10:04:59.895Z,79.6353
2023-05-10T10:06:15.901Z,81.6573
2023-05-10T10:07:20.678Z,81.3451
2023-05-10T10:08:28.736Z,80.1255
2023-05-10T10:09:36.770Z,79.7318
2023-05-10T10:10:46.017Z,77.6344
2023-05-10T10:11:53.001Z,76.5607
2023-05-10T10:13:00.963Z,75.9255
2023-05-10T10:14:09.059Z,73.9030
2023-05-10T10:15:17.105Z,74.3396
2023-05-10T10:16:25.021Z,73.7030
2023-05-10T10:17:33.097Z,73.3900
2023-05-10T10:18:41.308Z,75.7166
2023-05-10T10:19:49.310Z,71.6951
2023-05-10T10:20:57.421Z,70.0376
2023-05-10T10:22:05.539Z,71.4519
2023-05-10T10:23:15.170Z,74.9344
2023-05-10T10:24:26.395Z,73.6346
2023-05-10T10:25:34.602Z,73.1687
2023-05-10T10:26:42.515Z,74.2735
2023-05-10T10:27:50.596Z,72.2271
2023-05-10T10:28:58.501Z,72.0569
2023-05-10T10:30:06.546Z,71.5437
2023-05-10T10:31:14.713Z,76.2715
2023-05-10T10:32:22.800Z,76.9570
2023-05-10T10:33:30.996Z,77.8239
2023-05-10T10:34:38.905Z,74.9438
2023-05-10T10:35:46.982Z,71.5028
2023-05-10T10:36:55.006Z,76.3677
2023-05-10T10:38:03.141Z,73.8809
2023-05-10T10:39:11.146Z,75.6354
2023-05-10T10:40:19.275Z,72.2701
2023-05-10T10:41:27.222Z,66.9045
2023-05-10T10:42:35.351Z,65.2792
2023-05-10T10:43:43.244Z,67.7486
2023-05-10T10:44:51.278Z,69.0662
2023-05-10T10:45:59.362Z,68.1144
2023-05-10T10:47:07.728Z,64.4130
2023-05-10T10:48:15.636Z,66.6691
2023-05-10T10:49:23.628Z,65.5787
2023-05-10T10:50:31.809Z,63.8317
2023-05-10T10:51:39.915Z,63.9830
2023-05-10T10:52:48.002Z,64.8134
2023-05-10T10:53:55.851Z,69.1872
2023-05-10T10:55:04.118Z,66.9136
2023-05-10T10:56:12.031Z,67.5071
2023-05-10T10:57:20.077Z,68.5043
2023-05-10T10:58:27.954Z,65.9677
2023-05-10T10:59:36.018Z,68.3859
2023-05-10T11:00:44.114Z,66.2241
2023-05-10T11:01:52.395Z,66.3888
2023-05-10T11:03:00.378Z,68.5048
2023-05-10T11:04:08.379Z,67.0900
2023-05-10T11:05:16.575Z,66.7904
2023-05-10T11:06:24.680Z,70.0403
2023-05-10T11:07:32.605Z,70.1649
2023-05-10T11:08:40.595Z,67.0098
2023-05-10T11:09:48.661Z,70.3004
2023-05-10T11:10:56.910Z,70.0850
2023-05-10T11:12:04.844Z,67.5411
2023-05-10T11:13:12.683Z,69.0146
2023-05-10T11:14:20.733Z,71.0246
2023-05-10T11:15:28.775Z,72.5490
2023-05-10T11:16:37.011Z,73.8476
2023-05-10T11:17:45.259Z,75.1135
2023-05-10T11:18:53.091Z,75.5742
2023-05-10T11:20:01.114Z,75.4803
2023-05-10T11:21:09.341Z,72.7823
2023-05-10T11:22:17.194Z,75.0447
2023-05-10T11:23:25.367Z,76.2167
2023-05-10T11:24:33.452Z,75.1667
2023-05-10T11:25:41.644Z,74.8564
2023-05-10T11:26:49.476Z,76.0730
2023-05-10T11:27:57.448Z,75.0747
2023-05-10T11:29:05.520Z,73.6550
2023-05-10T11:30:13.647Z,69.3495
2023-05-10T11:31:21.829Z,69.1724
2023-05-10T11:32:29.819Z,70.9241
2023-05-10T11:33:37.925Z,72.8833
2023-05-10T11:34:45.849Z,75.0794
2023-05-10T11:35:53.968Z,75.2128
2023-05-10T11:37:01.984Z,73.1206
2023-05-10T11:38:10.075Z,70.0442
2023-05-10T11:39:18.054Z,71.5594
2023-05-10T11:40:26.137Z,70.2178
2023-05-10T11:41:34.394Z,68.0057
2023-05-10T11:42:42.116Z,67.9911
2023-05-10T11:43:50.136Z,70.5640
2023-05-10T11:44:58.248Z,70.2249
2023-05-10T11:46:06.633Z,69.1230
2023-05-10T11:47:15.309Z,65.2920
2023-05-10T11:48:22.589Z,66.2457
2023-05-10T11:49:30.855Z,71.1162
2023-05-10T11:50:38.631Z,68.1440
2023-05-10T11:51:46.678Z,69.5232
2023-05-10T11:52:54.801Z,64.8479
2023-05-10T11:54:02.867Z,66.8829
2023-05-10T11:55:10.859Z,68.6435
2023-05-10T11:56:18.939Z,70.2795
2023-05-10T11:57:27.020Z,68.0001
2023-05-10T11:58:34.905Z,65.2930
2023-05-10T11:59:43.345Z,69.0730
2023-05-10T12:00:51.020Z,70.2126
2023-05-10T12:01:59.177Z,70.1333
2023-05-10T12:03:07.374Z,67.3611
2023-05-10T12:04:15.445Z,69.3428
2023-05-10T12:05:23.366Z,69.8731
2023-05-10T12:06:31.468Z,67.4967
2023-05-10T12:07:39.547Z,68.5282
2023-05-10T12:08:47.520Z,66.0522
2023-05-10T12:09:55.570Z,66.7555
2023-05-10T12:11:03.646Z,65.1853
2023-05-10T12:12:11.706Z,65.5330
2023-05-10T12:13:19.649Z,61.4778
2023-05-10T12:14:27.718Z,59.1165
2023-05-10T12:15:35.755Z,61.1527
2023-05-10T12:16:43.987Z,60.6878
2023-05-10T12:17:52.075Z,61.1244
2023-05-10T12:19:00.077Z,62.9527
2023-05-10T12:20:08.088Z,63.8983
2023-05-10T12:21:16.194Z,63.3088
2023-05-10T12:22:24.224Z,62.8483
2023-05-10T12:23:32.334Z,63.9843
2023-05-10T12:24:40.384Z,64.6456
2023-05-10T12:25:48.417Z,63.6041
2023-05-10T12:26:56.425Z,62.6703
2023-05-10T12:28:04.423Z,62.4306
2023-05-10T12:29:12.428Z,62.5959
2023-05-10T12:30:20.482Z,65.7559
2023-05-10T12:31:28.836Z,70.1751
2023-05-10T12:32:36.750Z,70.4595
2023-05-10T12:33:44.798Z,72.2707
2023-05-10T12:34:52.860Z,74.4205
2023-05-10T12:36:00.894Z,72.7514
2023-05-10T12:37:08.905Z,72.3636
2023-05-10T12:38:17.077Z,70.9978
2023-05-10T12:39:25.046Z,71.9953
2023-05-10T12:40:33.221Z,71.2667
2023-05-10T12:41:43.518Z,72.8996
2023-05-10T12:42:53.999Z,71.7327
2023-05-10T12:44:02.025Z,69.7784
2023-05-10T12:45:10.069Z,71.5611
2023-05-10T12:46:18.315Z,74.3008
2023-05-10T12:47:26.442Z,75.1866
2023-05-10T12:48:34.383Z,76.8833
2023-05-10T12:49:42.475Z,76.2893
2023-05-10T12:50:50.453Z,78.5087
2023-05-10T12:51:58.517Z,77.2360
2023-05-10T12:53:06.630Z,78.8763
2023-05-10T12:54:14.818Z,77.9962
2023-05-10T12:55:22.704Z,78.3092
2023-05-10T12:56:30.854Z,78.9336
2023-05-10T12:57:38.677Z,76.6417
2023-05-10T12:58:46.760Z,77.4359
2023-05-10T12:59:54.804Z,75.0595
2023-05-10T13:01:03.172Z,76.4877
2023-05-10T13:02:11.060Z,74.4719
2023-05-10T13:03:19.285Z,76.0537
2023-05-10T13:04:27.201Z,74.5067
2023-05-10T13:05:35.285Z,74.4261
2023-05-10T13:06:43.348Z,75.6366
2023-05-10T13:07:51.472Z,79.4489
2023-05-10T13:08:59.509Z,77.2295
2023-05-10T13:10:07.586Z,75.9077
2023-05-10T13:11:15.694Z,77.2607
2023-05-10T13:12:23.537Z,78.4038
2023-05-10T13:13:31.606Z,80.0206
2023-05-10T13:14:39.623Z,80.4182
2023-05-10T13:15:47.788Z,82.1410
2023-05-10T13:16:55.973Z,81.0455
2023-05-10T13:18:04.120Z,81.4788
2023-05-10T13:19:12.256Z,81.0287
2023-05-10T13:20:20.014Z,82.6734
2023-05-10T13:21:28.079Z,83.5473
2023-05-10T13:22:40.197Z,84.7194
2023-05-10T13:23:49.098Z,84.9439
2023-05-10T13:24:57.134Z,83.8051
2023-05-10T13:26:05.088Z,81.0739
2023-05-10T13:27:13.108Z,80.2471
2023-05-10T13:28:21.176Z,73.7153
2023-05-10T13:29:29.421Z,73.8419
2023-05-10T13:30:37.418Z,71.9189
2023-05-10T13:31:45.540Z,72.3015
2023-05-10T13:32:53.575Z,72.4071
2023-05-10T13:34:01.716Z,73.4094
2023-05-10T13:35:09.548Z,75.3459
2023-05-10T13:36:17.823Z,72.6325
2023-05-10T13:37:25.808Z,74.4592
2023-05-10T13:38:33.832Z,76.7059
2023-05-10T13:39:42.057Z,77.5088
2023-05-10T13:40:49.808Z,79.5836